createdAt,value
2019-05-15T00:00:50.818Z,0.00
2019-05-15T00:01:50.833Z,0.00
2019-05-15T00:02:50.839Z,0.00
2019-05-15T00:03:50.858Z,0.00
2019-05-15T00:04:50.870Z,0.00
2019-05-15T00:05:50.882Z,0.00
2019-05-15T00:06:50.893Z,0.00
2019-05-15T00:07:50.942Z,0.00
2019-05-15T00:08:50.930Z,4.00
2019-05-15T00:09:50.936Z,4.00
2019-05-15T00:10:51.001Z,4.00
2019-05-15T00:11:50.964Z,4.00
2019-05-15T00:12:50.996Z,4.00
2019-05-15T00:13:50.989Z,4.00
2019-05-15T00:14:51.001Z,4.00
2019-05-15T00:15:51.013Z,4.00
2019-05-15T00:16:51.037Z,4.00
2019-05-15T00:17:51.036Z,4.00
2019-05-15T00:18:51.050Z,4.00
2019-05-15T00:19:51.067Z,4.00
2019-05-15T00:20:51.082Z,4.00
2019-05-15T00:21:51.091Z,4.00
2019-05-15T00:22:51.102Z,4.00
2019-05-15T00:25:52.692Z,4.00
2019-05-15T00:26:51.159Z,4.00
2019-05-15T00:27:51.186Z,4.00
2019-05-15T00:28:51.181Z,4.00
2019-05-15T00:29:51.194Z,4.00
2019-05-15T00:30:51.207Z,4.00
2019-05-15T00:31:51.222Z,4.00
2019-05-15T00:32:51.233Z,4.00
2019-05-15T00:33:51.253Z,4.00
2019-05-15T00:34:51.270Z,4.00
2019-05-15T00:35:51.262Z,4.00
2019-05-15T00:36:51.284Z,4.00
2019-05-15T00:37:51.287Z,4.00
2019-05-15T00:38:51.303Z,4.00
2019-05-15T00:39:51.329Z,4.00
2019-05-15T00:40:51.334Z,4.00
2019-05-15T00:41:54.570Z,0.00
2019-05-15T00:42:51.376Z,0.00
2019-05-15T00:43:51.370Z,0.00
2019-05-15T00:44:51.380Z,0.00
2019-05-15T00:45:51.399Z,0.00
2019-05-15T00:46:51.414Z,0.00
2019-05-15T00:47:51.427Z,0.00
2019-05-15T00:48:51.456Z,0.00
2019-05-15T00:49:51.445Z,0.00
2019-05-15T00:50:51.457Z,0.00
2019-05-15T00:51:51.470Z,0.00
2019-05-15T00:52:51.480Z,0.00
2019-05-15T00:53:51.596Z,0.00
2019-05-15T00:55:52.758Z,0.00
2019-05-15T00:56:51.943Z,0.00
2019-05-15T00:57:51.550Z,0.00
2019-05-15T00:58:51.558Z,0.00
2019-05-15T00:59:51.578Z,0.00
2019-05-15T01:00:51.583Z,0.00
2019-05-15T01:01:51.610Z,0.00
2019-05-15T01:02:51.611Z,0.00
2019-05-15T01:03:51.625Z,0.00
2019-05-15T01:04:51.643Z,0.00
2019-05-15T01:05:51.665Z,0.00
2019-05-15T01:06:52.729Z,0.00
2019-05-15T01:07:51.677Z,0.00
2019-05-15T01:08:51.789Z,0.00
2019-05-15T01:09:51.749Z,0.00
2019-05-15T01:10:51.715Z,0.00
2019-05-15T01:11:51.880Z,0.00
2019-05-15T01:12:52.365Z,0.00
2019-05-15T01:13:51.752Z,0.00
2019-05-15T01:14:51.763Z,0.00
2019-05-15T01:15:51.783Z,0.00
2019-05-15T01:16:51.792Z,0.00
2019-05-15T01:17:51.839Z,0.00
2019-05-15T01:18:52.053Z,0.00
2019-05-15T01:19:51.827Z,0.00
2019-05-15T01:20:51.841Z,0.00
2019-05-15T01:21:51.853Z,4.00
2019-05-15T01:22:51.874Z,0.00
2019-05-15T01:23:51.877Z,0.00
2019-05-15T01:24:51.892Z,0.00
2019-05-15T01:25:51.906Z,0.00
2019-05-15T01:27:52.029Z,0.00
2019-05-15T01:28:52.079Z,0.00
2019-05-15T01:29:51.955Z,0.00
2019-05-15T01:30:51.973Z,0.00
2019-05-15T01:31:51.997Z,0.00
2019-05-15T01:32:51.990Z,0.00
2019-05-15T01:33:52.003Z,0.00
2019-05-15T01:34:52.019Z,0.00
2019-05-15T01:35:52.036Z,0.00
2019-05-15T01:36:52.042Z,0.00
2019-05-15T01:37:52.077Z,0.00
2019-05-15T01:38:52.070Z,0.00
2019-05-15T01:39:52.083Z,0.00
2019-05-15T01:40:52.100Z,0.00
2019-05-15T01:41:52.104Z,0.00
2019-05-15T01:42:53.370Z,0.00
2019-05-15T01:43:52.132Z,0.00
2019-05-15T01:44:52.146Z,0.00
2019-05-15T01:45:52.157Z,0.00
2019-05-15T01:46:52.170Z,0.00
2019-05-15T01:47:52.182Z,0.00
2019-05-15T01:48:52.194Z,0.00
2019-05-15T01:49:52.228Z,0.00
2019-05-15T01:50:52.231Z,0.00
2019-05-15T01:51:52.233Z,0.00
2019-05-15T01:52:52.353Z,0.00
2019-05-15T01:53:52.260Z,0.00
2019-05-15T01:54:52.270Z,0.00
2019-05-15T01:55:52.282Z,0.00
2019-05-15T01:56:52.345Z,0.00
2019-05-15T01:58:52.328Z,0.00
2019-05-15T01:59:57.235Z,0.00
2019-05-15T02:00:52.403Z,0.00
2019-05-15T02:01:52.366Z,0.00
2019-05-15T02:02:52.372Z,0.00
2019-05-15T02:03:52.383Z,0.00
2019-05-15T02:04:52.394Z,0.00
2019-05-15T02:05:52.408Z,0.00
2019-05-15T02:06:52.418Z,0.00
2019-05-15T02:07:52.442Z,0.00
2019-05-15T02:08:52.454Z,0.00
2019-05-15T02:09:52.457Z,0.00
2019-05-15T02:10:52.471Z,0.00
2019-05-15T02:11:52.481Z,0.00
2019-05-15T02:12:52.499Z,0.00
2019-05-15T02:13:52.504Z,0.00
2019-05-15T02:14:52.526Z,0.00
2019-05-15T02:15:52.740Z,0.00
2019-05-15T02:16:52.542Z,0.00
2019-05-15T02:17:52.557Z,0.00
2019-05-15T02:18:52.574Z,0.00
2019-05-15T02:19:52.588Z,0.00
2019-05-15T02:20:52.601Z,0.00
2019-05-15T02:21:52.611Z,0.00
2019-05-15T02:22:52.620Z,0.00
2019-05-15T02:23:52.629Z,0.00
2019-05-15T02:24:52.643Z,0.00
2019-05-15T02:25:52.659Z,0.00
2019-05-15T02:26:52.669Z,0.00
2019-05-15T02:27:52.680Z,0.00
2019-05-15T02:28:52.693Z,0.00
2019-05-15T02:29:52.729Z,0.00
2019-05-15T02:30:52.720Z,0.00
2019-05-15T02:31:52.730Z,0.00
2019-05-15T02:32:52.758Z,0.00
2019-05-15T02:33:52.752Z,0.00
2019-05-15T02:34:52.773Z,0.00
2019-05-15T02:35:52.782Z,0.00
2019-05-15T02:36:52.791Z,0.00
2019-05-15T02:37:52.812Z,0.00
2019-05-15T02:38:52.825Z,0.00
2019-05-15T02:39:52.833Z,0.00
2019-05-15T02:40:52.845Z,4.00
2019-05-15T02:41:52.852Z,4.00
2019-05-15T02:42:52.867Z,4.00
2019-05-15T02:43:52.886Z,4.00
2019-05-15T02:44:52.898Z,4.00
2019-05-15T02:45:52.904Z,4.00
2019-05-15T02:46:52.913Z,4.00
2019-05-15T02:47:52.927Z,4.00
2019-05-15T02:48:52.943Z,4.00
2019-05-15T02:49:52.952Z,4.00
2019-05-15T02:50:52.980Z,4.00
2019-05-15T02:51:52.980Z,4.00
2019-05-15T02:52:52.986Z,4.00
2019-05-15T02:53:52.999Z,4.00
2019-05-15T02:54:53.018Z,4.00
2019-05-15T02:55:53.023Z,4.00
2019-05-15T02:56:53.037Z,4.00
2019-05-15T02:57:53.049Z,4.00
2019-05-15T02:58:53.067Z,4.00
2019-05-15T02:59:53.104Z,4.00
2019-05-15T03:00:53.675Z,4.00
2019-05-15T03:01:53.097Z,4.00
2019-05-15T03:02:53.113Z,0.00
2019-05-15T03:03:53.124Z,4.00
2019-05-15T03:04:53.131Z,4.00
2019-05-15T03:05:53.154Z,4.00
2019-05-15T03:06:53.180Z,4.00
2019-05-15T03:07:53.171Z,4.00
2019-05-15T03:08:53.178Z,4.00
2019-05-15T03:09:53.195Z,4.00
2019-05-15T03:10:53.204Z,8.00
2019-05-15T03:11:53.219Z,4.00
2019-05-15T03:12:53.239Z,8.00
2019-05-15T03:13:53.244Z,8.00
2019-05-15T03:14:53.265Z,4.00
2019-05-15T03:15:53.267Z,4.00
2019-05-15T03:16:53.279Z,8.00
2019-05-15T03:17:53.289Z,8.00
2019-05-15T03:18:55.733Z,8.00
2019-05-15T03:19:53.321Z,8.00
2019-05-15T03:20:53.335Z,12.00
2019-05-15T03:21:53.336Z,12.00
2019-05-15T03:22:53.376Z,16.00
2019-05-15T03:23:53.367Z,20.00
2019-05-15T03:24:53.372Z,20.00
2019-05-15T03:25:53.393Z,24.00
2019-05-15T03:26:53.400Z,24.00
2019-05-15T03:27:53.410Z,24.00
2019-05-15T03:28:53.419Z,28.00
2019-05-15T03:29:53.436Z,36.00
2019-05-15T03:31:32.621Z,40.00
2019-05-15T03:32:09.213Z,40.00
2019-05-15T03:33:01.480Z,44.00
2019-05-15T03:33:54.811Z,48.00
2019-05-15T03:34:56.888Z,52.00
2019-05-15T03:35:54.827Z,60.00
2019-05-15T03:36:53.715Z,64.00
2019-05-15T03:37:53.536Z,72.00
2019-05-15T03:38:53.539Z,76.00
2019-05-15T03:39:53.563Z,80.00
2019-05-15T03:40:53.565Z,84.00
2019-05-15T03:41:53.585Z,96.00
2019-05-15T03:42:53.594Z,100.00
2019-05-15T03:43:53.603Z,108.00
2019-05-15T03:44:53.620Z,112.00
2019-05-15T03:45:53.625Z,124.00
2019-05-15T03:46:53.660Z,132.00
2019-05-15T03:47:53.665Z,136.00
2019-05-15T03:48:53.657Z,148.00
2019-05-15T03:49:53.673Z,156.00
2019-05-15T03:50:53.692Z,164.00
2019-05-15T03:51:53.695Z,172.00
2019-05-15T03:52:53.738Z,184.00
2019-05-15T03:53:53.721Z,192.00
2019-05-15T03:54:53.744Z,204.00
2019-05-15T03:55:53.752Z,212.00
2019-05-15T03:56:53.761Z,220.00
2019-05-15T03:57:53.774Z,232.00
2019-05-15T03:58:53.782Z,244.00
2019-05-15T03:59:53.793Z,252.00
2019-05-15T04:00:53.801Z,264.00
2019-05-15T04:01:53.841Z,272.00
2019-05-15T04:02:53.834Z,284.00
2019-05-15T04:03:53.841Z,296.00
2019-05-15T04:04:57.211Z,308.00
2019-05-15T04:05:53.863Z,320.00
2019-05-15T04:06:53.879Z,328.00
2019-05-15T04:07:53.888Z,344.00
2019-05-15T04:08:54.000Z,352.00
2019-05-15T04:09:53.911Z,368.00
2019-05-15T04:10:53.924Z,376.00
2019-05-15T04:11:53.940Z,392.00
2019-05-15T04:12:53.952Z,404.00
2019-05-15T04:13:53.966Z,416.00
2019-05-15T04:14:53.970Z,432.00
2019-05-15T04:15:53.983Z,444.00
2019-05-15T04:16:53.989Z,456.00
2019-05-15T04:17:53.998Z,472.00
2019-05-15T04:18:54.016Z,484.00
2019-05-15T04:19:54.023Z,496.00
2019-05-15T04:20:54.035Z,512.00
2019-05-15T04:21:54.053Z,532.00
2019-05-15T04:22:54.062Z,568.00
2019-05-15T04:23:54.070Z,584.00
2019-05-15T04:24:54.099Z,600.00
2019-05-15T04:25:54.092Z,592.00
2019-05-15T04:26:54.109Z,600.00
2019-05-15T04:27:54.141Z,612.00
2019-05-15T04:28:54.128Z,628.00
2019-05-15T04:29:54.141Z,644.00
2019-05-15T04:30:54.158Z,656.00
2019-05-15T04:32:01.179Z,764.00
2019-05-15T04:32:54.184Z,740.00
2019-05-15T04:33:54.193Z,1336.00
2019-05-15T04:34:54.201Z,1620.00
2019-05-15T04:35:54.315Z,936.00
2019-05-15T04:37:54.239Z,1412.00
2019-05-15T04:38:54.267Z,2512.00
2019-05-15T04:39:54.271Z,2588.00
2019-05-15T04:40:54.270Z,1336.00
2019-05-15T04:41:54.283Z,936.00
2019-05-15T04:42:54.295Z,864.00
2019-05-15T04:43:54.309Z,876.00
2019-05-15T04:44:54.325Z,904.00
2019-05-15T04:45:54.333Z,1028.00
2019-05-15T04:46:54.373Z,1064.00
2019-05-15T04:47:54.358Z,1396.00
2019-05-15T04:48:54.402Z,1388.00
2019-05-15T04:49:54.379Z,1328.00
2019-05-15T04:50:54.405Z,1272.00
2019-05-15T04:51:54.400Z,1300.00
2019-05-15T04:52:54.416Z,952.00
2019-05-15T04:53:54.441Z,940.00
2019-05-15T04:54:54.448Z,956.00
2019-05-15T04:55:54.491Z,968.00
2019-05-15T04:56:54.475Z,984.00
2019-05-15T04:57:54.505Z,992.00
2019-05-15T04:58:54.523Z,1008.00
2019-05-15T04:59:54.706Z,1020.00
2019-05-15T05:00:54.521Z,1028.00
2019-05-15T05:02:12.981Z,1040.00
2019-05-15T05:02:54.622Z,1048.00
2019-05-15T05:03:54.559Z,1060.00
2019-05-15T05:04:54.560Z,1072.00
2019-05-15T05:05:54.573Z,1080.00
2019-05-15T05:06:54.599Z,1088.00
2019-05-15T05:07:54.597Z,1108.00
2019-05-15T05:08:54.640Z,1112.00
2019-05-15T05:09:54.622Z,1124.00
2019-05-15T05:10:54.658Z,1136.00
2019-05-15T05:11:54.646Z,1148.00
2019-05-15T05:12:54.821Z,1164.00
2019-05-15T05:13:54.996Z,1176.00
2019-05-15T05:15:54.849Z,1204.00
2019-05-15T05:16:54.711Z,1220.00
2019-05-15T05:17:54.723Z,1232.00
2019-05-15T05:18:54.744Z,1248.00
2019-05-15T05:19:54.852Z,1268.00
2019-05-15T05:20:54.755Z,1280.00
2019-05-15T05:21:54.766Z,1300.00
2019-05-15T05:22:54.787Z,1312.00
2019-05-15T05:23:54.788Z,1328.00
2019-05-15T05:24:54.811Z,1344.00
2019-05-15T05:25:54.839Z,1356.00
2019-05-15T05:26:54.827Z,1368.00
2019-05-15T05:27:54.859Z,1380.00
2019-05-15T05:28:54.857Z,1392.00
2019-05-15T05:29:54.863Z,1412.00
2019-05-15T05:30:54.875Z,1420.00
2019-05-15T05:31:54.890Z,1432.00
2019-05-15T05:32:54.901Z,1448.00
2019-05-15T05:33:55.168Z,1456.00
2019-05-15T05:34:54.929Z,1476.00
2019-05-15T05:35:54.941Z,1480.00
2019-05-15T05:36:54.967Z,1492.00
2019-05-15T05:37:54.965Z,1496.00
2019-05-15T05:38:54.983Z,1512.00
2019-05-15T05:39:54.993Z,1524.00
2019-05-15T05:40:55.017Z,1540.00
2019-05-15T05:41:55.034Z,1548.00
2019-05-15T05:42:55.026Z,1556.00
2019-05-15T05:43:55.058Z,1568.00
2019-05-15T05:44:55.054Z,1572.00
2019-05-15T05:45:55.115Z,1584.00
2019-05-15T05:46:55.162Z,1596.00
2019-05-15T05:47:55.111Z,1604.00
2019-05-15T05:48:55.096Z,1616.00
2019-05-15T05:49:55.117Z,1624.00
2019-05-15T05:50:55.127Z,1624.00
2019-05-15T05:51:55.137Z,1644.00
2019-05-15T05:52:55.144Z,1644.00
2019-05-15T05:53:55.161Z,1652.00
2019-05-15T05:54:55.184Z,1660.00
2019-05-15T05:55:55.187Z,1668.00
2019-05-15T05:56:55.203Z,1680.00
2019-05-15T05:57:55.223Z,1692.00
2019-05-15T05:58:55.216Z,1696.00
2019-05-15T05:59:55.234Z,1712.00
2019-05-15T06:00:55.258Z,1720.00
2019-05-15T06:01:55.263Z,1728.00
2019-05-15T06:02:55.295Z,1740.00
2019-05-15T06:03:55.276Z,1744.00
2019-05-15T06:05:55.377Z,1756.00
2019-05-15T06:07:07.126Z,1756.00
2019-05-15T06:07:55.331Z,1772.00
2019-05-15T06:08:55.359Z,1776.00
2019-05-15T06:09:55.354Z,1780.00
2019-05-15T06:10:55.368Z,1788.00
2019-05-15T06:11:55.477Z,1796.00
2019-05-15T06:13:55.402Z,1804.00
2019-05-15T06:14:55.417Z,1800.00
2019-05-15T06:15:55.445Z,1808.00
2019-05-15T06:16:55.443Z,1820.00
2019-05-15T06:17:55.468Z,1828.00
2019-05-15T06:18:55.471Z,1840.00
2019-05-15T06:19:55.502Z,1848.00
2019-05-15T06:20:55.492Z,1868.00
2019-05-15T06:22:00.254Z,1876.00
2019-05-15T06:22:57.903Z,1884.00
2019-05-15T06:23:58.047Z,1896.00
2019-05-15T06:24:57.804Z,1900.00
2019-05-15T06:25:55.555Z,1916.00
2019-05-15T06:26:55.564Z,1928.00
2019-05-15T06:27:55.577Z,1936.00
2019-05-15T06:28:58.141Z,1960.00
2019-05-15T06:29:57.905Z,1960.00
2019-05-15T06:31:00.371Z,1968.00
2019-05-15T06:31:55.630Z,1980.00
2019-05-15T06:33:08.245Z,1992.00
2019-05-15T06:34:57.791Z,2012.00
2019-05-15T06:35:55.676Z,2020.00
2019-05-15T06:36:55.692Z,2032.00
2019-05-15T06:37:55.711Z,2040.00
2019-05-15T06:38:55.736Z,2052.00
2019-05-15T06:39:55.748Z,2056.00
2019-05-15T06:41:55.762Z,2076.00
2019-05-15T06:42:59.129Z,2088.00
2019-05-15T06:43:55.915Z,2100.00
2019-05-15T06:44:55.811Z,2108.00
2019-05-15T06:45:58.274Z,2120.00
2019-05-15T06:46:55.822Z,2136.00
2019-05-15T06:47:57.814Z,2132.00
2019-05-15T06:48:57.936Z,2152.00
2019-05-15T06:49:57.869Z,2164.00
2019-05-15T06:50:57.924Z,2180.00
2019-05-15T06:51:57.999Z,2180.00
2019-05-15T06:52:55.898Z,2192.00
2019-05-15T06:53:58.196Z,2200.00
2019-05-15T06:54:55.959Z,2216.00
2019-05-15T06:55:58.292Z,2224.00
2019-05-15T06:56:58.192Z,2232.00
2019-05-15T06:57:58.458Z,2248.00
2019-05-15T06:58:58.076Z,2256.00
2019-05-15T06:59:57.957Z,2280.00
2019-05-15T07:00:55.993Z,2272.00
2019-05-15T07:01:59.151Z,2296.00
2019-05-15T07:02:58.276Z,2308.00
2019-05-15T07:03:56.038Z,2324.00
2019-05-15T07:04:58.195Z,2316.00
2019-05-15T07:05:59.468Z,2324.00
2019-05-15T07:06:58.337Z,2344.00
2019-05-15T07:07:58.465Z,2348.00
2019-05-15T07:08:58.566Z,2356.00
2019-05-15T07:09:58.160Z,2364.00
2019-05-15T07:10:57.890Z,2376.00
2019-05-15T07:11:56.136Z,2392.00
2019-05-15T07:13:58.062Z,2400.00
2019-05-15T07:14:58.219Z,2424.00
2019-05-15T07:15:58.402Z,2428.00
2019-05-15T07:16:56.194Z,2432.00
2019-05-15T07:17:58.038Z,2448.00
2019-05-15T07:18:58.716Z,2456.00
2019-05-15T07:19:58.971Z,2464.00
2019-05-15T07:20:58.067Z,2472.00
2019-05-15T07:21:58.099Z,2484.00
2019-05-15T07:22:58.625Z,2484.00
2019-05-15T07:23:58.335Z,2492.00
2019-05-15T07:24:58.220Z,2500.00
2019-05-15T07:25:58.659Z,2504.00
2019-05-15T07:26:59.062Z,2512.00
2019-05-15T07:27:58.079Z,2516.00
2019-05-15T07:28:56.350Z,2528.00
2019-05-15T07:29:58.376Z,2528.00
2019-05-15T07:31:58.463Z,2548.00
2019-05-15T07:32:58.324Z,2548.00
2019-05-15T07:33:56.411Z,2564.00
2019-05-15T07:34:57.965Z,2552.00
2019-05-15T07:35:58.820Z,2568.00
2019-05-15T07:36:58.956Z,2580.00
2019-05-15T07:37:58.578Z,2588.00
2019-05-15T07:38:58.013Z,2592.00
2019-05-15T07:39:58.875Z,2592.00
2019-05-15T07:41:01.068Z,2616.00
2019-05-15T07:41:57.851Z,2612.00
2019-05-15T07:42:58.565Z,2628.00
2019-05-15T07:43:58.629Z,2636.00
2019-05-15T07:44:58.882Z,2640.00
2019-05-15T07:45:58.794Z,2648.00
2019-05-15T07:46:58.412Z,2648.00
2019-05-15T07:47:58.515Z,2656.00
2019-05-15T07:48:58.374Z,2660.00
2019-05-15T07:49:58.750Z,2668.00
2019-05-15T07:50:59.251Z,2672.00
2019-05-15T07:51:59.019Z,2660.00
2019-05-15T07:52:58.969Z,2688.00
2019-05-15T07:53:58.320Z,2664.00
2019-05-15T07:54:58.195Z,2684.00
2019-05-15T07:56:00.630Z,2692.00
2019-05-15T07:56:58.208Z,2716.00
2019-05-15T07:57:59.022Z,2712.00
2019-05-15T07:58:58.612Z,2712.00
2019-05-15T07:59:58.688Z,2716.00
2019-05-15T08:00:59.023Z,2728.00
2019-05-15T08:01:58.123Z,2708.00
2019-05-15T08:02:58.629Z,2736.00
2019-05-15T08:06:02.303Z,2756.00
2019-05-15T08:06:59.153Z,2756.00
2019-05-15T08:07:58.121Z,2744.00
2019-05-15T08:08:59.028Z,2764.00
2019-05-15T08:09:59.207Z,2776.00
2019-05-15T08:10:57.927Z,2768.00
2019-05-15T08:12:00.158Z,2764.00
2019-05-15T08:12:58.138Z,2804.00
2019-05-15T08:13:58.162Z,2788.00
2019-05-15T08:14:58.253Z,2792.00
2019-05-15T08:15:58.001Z,2816.00
2019-05-15T08:16:59.138Z,2816.00
2019-05-15T08:18:05.522Z,2816.00
2019-05-15T08:18:57.831Z,2820.00
2019-05-15T08:19:58.240Z,2836.00
2019-05-15T08:20:58.657Z,2848.00
2019-05-15T08:21:58.159Z,2840.00
2019-05-15T08:22:58.290Z,2840.00
2019-05-15T08:23:59.025Z,2836.00
2019-05-15T08:24:59.105Z,2852.00
2019-05-15T08:25:57.883Z,2852.00
2019-05-15T08:26:58.087Z,2848.00
2019-05-15T08:27:58.986Z,2848.00
2019-05-15T08:28:57.903Z,2868.00
2019-05-15T08:29:58.144Z,2868.00
2019-05-15T08:30:58.359Z,2844.00
2019-05-15T08:31:58.978Z,2868.00
2019-05-15T08:32:58.923Z,2868.00
2019-05-15T08:34:12.318Z,2916.00
2019-05-15T08:34:58.675Z,2912.00
2019-05-15T08:35:58.840Z,2892.00
2019-05-15T08:36:59.002Z,2936.00
2019-05-15T08:37:58.078Z,2928.00
2019-05-15T08:38:59.162Z,2992.00
2019-05-15T08:39:59.607Z,2952.00
2019-05-15T08:40:59.205Z,2976.00
2019-05-15T08:41:58.449Z,2944.00
2019-05-15T08:43:01.865Z,2980.00
2019-05-15T08:43:58.005Z,2968.00
2019-05-15T08:44:58.366Z,3016.00
2019-05-15T08:45:58.681Z,3008.00
2019-05-15T08:46:58.858Z,3000.00
2019-05-15T08:47:58.623Z,3028.00
2019-05-15T08:48:58.280Z,3032.00
2019-05-15T08:50:58.083Z,3020.00
2019-05-15T08:51:58.384Z,3044.00
2019-05-15T08:52:57.952Z,3048.00
2019-05-15T08:54:59.083Z,3072.00
2019-05-15T08:55:58.785Z,3076.00
2019-05-15T08:56:59.182Z,3080.00
2019-05-15T08:58:07.169Z,3096.00
2019-05-15T08:58:58.083Z,3092.00
2019-05-15T08:59:58.302Z,3096.00
2019-05-15T09:00:58.678Z,3124.00
2019-05-15T09:01:58.259Z,3120.00
2019-05-15T09:02:58.242Z,3116.00
2019-05-15T09:03:58.211Z,3128.00
2019-05-15T09:04:58.062Z,3148.00
2019-05-15T09:07:01.145Z,3144.00
2019-05-15T09:07:58.117Z,3176.00
2019-05-15T09:08:58.572Z,3180.00
2019-05-15T09:09:58.085Z,3200.00
2019-05-15T09:10:58.744Z,3188.00
2019-05-15T09:12:58.654Z,3172.00
2019-05-15T09:15:58.904Z,3196.00
2019-05-15T09:16:58.225Z,3224.00
2019-05-15T09:18:11.648Z,3224.00
2019-05-15T09:18:59.162Z,3248.00
2019-05-15T09:19:58.819Z,3236.00
2019-05-15T09:20:59.289Z,3200.00
2019-05-15T09:21:58.610Z,3200.00
2019-05-15T09:22:58.413Z,3228.00
2019-05-15T09:23:59.119Z,3232.00
2019-05-15T09:24:58.933Z,3240.00
2019-05-15T09:25:58.236Z,3264.00
2019-05-15T09:26:59.423Z,3252.00
2019-05-15T09:27:58.316Z,3268.00
2019-05-15T09:28:58.668Z,3300.00
2019-05-15T09:29:59.178Z,3336.00
2019-05-15T09:30:59.062Z,3356.00
2019-05-15T09:31:58.859Z,3360.00
2019-05-15T09:33:58.722Z,3360.00
2019-05-15T09:34:59.328Z,3368.00
2019-05-15T09:35:58.474Z,3384.00
2019-05-15T09:36:59.974Z,3392.00
2019-05-15T09:37:58.376Z,3408.00
2019-05-15T09:38:58.569Z,3408.00
2019-05-15T09:39:58.478Z,3400.00
2019-05-15T09:40:58.629Z,3416.00
2019-05-15T09:41:58.133Z,3436.00
2019-05-15T09:42:58.399Z,3424.00
2019-05-15T09:43:58.168Z,3452.00
2019-05-15T09:44:58.408Z,3456.00
2019-05-15T09:45:58.481Z,3460.00
2019-05-15T09:46:58.543Z,3464.00
2019-05-15T09:47:58.808Z,3476.00
2019-05-15T09:48:59.292Z,3480.00
2019-05-15T09:49:58.945Z,3500.00
2019-05-15T09:50:58.870Z,3504.00
2019-05-15T09:51:58.668Z,3508.00
2019-05-15T09:52:59.053Z,3504.00
2019-05-15T09:53:59.639Z,3508.00
2019-05-15T09:54:59.282Z,3508.00
2019-05-15T09:55:59.990Z,3500.00
2019-05-15T09:56:58.614Z,3524.00
2019-05-15T09:57:59.081Z,3512.00
2019-05-15T09:58:58.894Z,3532.00
2019-05-15T09:59:58.837Z,3528.00
2019-05-15T10:00:59.081Z,3540.00
2019-05-15T10:01:58.829Z,3536.00
2019-05-15T10:02:58.412Z,3536.00
2019-05-15T10:05:06.761Z,3536.00
2019-05-15T10:05:58.457Z,3528.00
2019-05-15T10:06:58.533Z,3548.00
2019-05-15T10:08:58.487Z,3500.00
2019-05-15T10:09:58.506Z,3572.00
2019-05-15T10:10:59.383Z,3556.00
2019-05-15T10:12:05.665Z,3524.00
2019-05-15T10:13:59.141Z,3540.00
2019-05-15T10:14:59.206Z,3548.00
2019-05-15T10:16:58.612Z,3556.00
2019-05-15T10:17:59.743Z,3508.00
2019-05-15T10:18:58.629Z,3528.00
2019-05-15T10:19:58.645Z,3532.00
2019-05-15T10:20:58.655Z,3524.00
2019-05-15T10:21:59.491Z,3532.00
2019-05-15T10:22:59.098Z,3516.00
2019-05-15T10:23:59.162Z,3528.00
2019-05-15T10:25:59.055Z,3488.00
2019-05-15T10:26:58.999Z,3516.00
2019-05-15T10:27:58.812Z,3468.00
2019-05-15T10:28:58.773Z,3532.00
2019-05-15T10:29:58.936Z,3572.00
2019-05-15T10:31:00.106Z,3664.00
2019-05-15T10:31:58.812Z,3696.00
2019-05-15T10:32:58.844Z,3716.00
2019-05-15T10:33:58.843Z,3684.00
2019-05-15T10:34:58.866Z,3672.00
2019-05-15T10:35:59.204Z,3684.00
2019-05-15T10:36:59.082Z,3632.00
2019-05-15T10:37:59.499Z,3640.00
2019-05-15T10:38:59.531Z,3628.00
2019-05-15T10:39:58.924Z,3620.00
2019-05-15T10:41:08.465Z,3632.00
2019-05-15T10:41:58.974Z,3624.00
2019-05-15T10:42:59.541Z,3636.00
2019-05-15T10:44:00.437Z,3656.00
2019-05-15T10:44:59.579Z,3652.00
2019-05-15T10:45:59.212Z,3656.00
2019-05-15T10:46:59.036Z,3648.00
2019-05-15T10:47:59.049Z,3644.00
2019-05-15T10:48:59.061Z,3636.00
2019-05-15T10:50:00.127Z,3660.00
2019-05-15T10:51:05.937Z,3652.00
2019-05-15T10:51:59.128Z,3656.00
2019-05-15T10:53:00.033Z,3712.00
2019-05-15T10:53:59.137Z,3832.00
2019-05-15T10:55:00.886Z,3892.00
2019-05-15T10:55:59.617Z,4028.00
2019-05-15T10:57:00.856Z,4004.00
2019-05-15T10:57:59.455Z,4132.00
2019-05-15T11:01:02.291Z,4268.00
2019-05-15T11:02:00.136Z,2792.00
2019-05-15T11:02:59.262Z,4312.00
2019-05-15T11:03:59.515Z,4156.00
2019-05-15T11:04:59.297Z,2592.00
2019-05-15T11:05:59.313Z,2004.00
2019-05-15T11:06:59.331Z,1832.00
2019-05-15T11:07:59.330Z,4104.00
2019-05-15T11:08:59.365Z,4036.00
2019-05-15T11:09:59.353Z,3156.00
2019-05-15T11:10:59.384Z,2016.00
2019-05-15T11:11:59.383Z,4028.00
2019-05-15T11:12:59.399Z,3936.00
2019-05-15T11:14:00.592Z,3900.00
2019-05-15T11:14:59.458Z,3940.00
2019-05-15T11:15:59.449Z,3196.00
2019-05-15T11:16:59.456Z,3756.00
2019-05-15T11:17:59.468Z,3748.00
2019-05-15T11:18:59.494Z,2920.00
2019-05-15T11:19:59.508Z,3756.00
2019-05-15T11:20:59.546Z,3716.00
2019-05-15T11:21:59.549Z,3688.00
2019-05-15T11:22:59.540Z,3760.00
2019-05-15T11:23:59.599Z,3748.00
2019-05-15T11:24:59.616Z,3772.00
2019-05-15T11:25:59.583Z,3704.00
2019-05-15T11:26:59.648Z,3700.00
2019-05-15T11:27:59.609Z,3652.00
2019-05-15T11:28:59.633Z,3168.00
2019-05-15T11:29:59.638Z,3728.00
2019-05-15T11:30:59.691Z,3672.00
2019-05-15T11:31:59.667Z,3620.00
2019-05-15T11:32:59.696Z,3708.00
2019-05-15T11:33:59.701Z,3712.00
2019-05-15T11:34:59.720Z,3716.00
2019-05-15T11:36:05.524Z,3732.00
2019-05-15T11:36:59.767Z,3768.00
2019-05-15T11:37:59.772Z,3816.00
2019-05-15T11:38:59.851Z,3840.00
2019-05-15T11:39:59.796Z,3864.00
2019-05-15T11:40:59.800Z,3912.00
2019-05-15T11:42:00.258Z,4012.00
2019-05-15T11:42:59.846Z,4096.00
2019-05-15T11:43:59.848Z,4252.00
2019-05-15T11:44:59.880Z,4328.00
2019-05-15T11:45:59.876Z,4488.00
2019-05-15T11:46:59.938Z,4520.00
2019-05-15T11:48:00.969Z,4592.00
2019-05-15T11:48:59.930Z,4584.00
2019-05-15T11:49:59.932Z,4636.00
2019-05-15T11:50:59.949Z,4724.00
2019-05-15T11:52:00.715Z,4744.00
2019-05-15T11:52:59.982Z,4740.00
2019-05-15T11:54:00.010Z,4700.00
2019-05-15T11:55:00.031Z,4676.00
2019-05-15T11:56:00.326Z,4468.00
2019-05-15T11:57:00.042Z,4284.00
2019-05-15T11:58:00.193Z,4212.00
2019-05-15T11:59:00.063Z,4216.00
2019-05-15T12:00:00.203Z,4364.00
2019-05-15T12:01:00.163Z,4568.00
2019-05-15T12:02:00.165Z,2532.00
2019-05-15T12:03:00.201Z,4560.00
2019-05-15T12:04:00.217Z,2848.00
2019-05-15T12:05:00.739Z,2988.00
2019-05-15T12:06:14.882Z,3332.00
2019-05-15T12:07:02.626Z,3244.00
2019-05-15T12:08:00.196Z,5500.00
2019-05-15T12:09:00.208Z,5360.00
2019-05-15T12:10:00.300Z,5344.00
2019-05-15T12:11:00.253Z,5252.00
2019-05-15T12:12:00.264Z,3820.00
2019-05-15T12:13:00.270Z,4848.00
2019-05-15T12:14:00.281Z,5132.00
2019-05-15T12:15:00.299Z,3060.00
2019-05-15T12:16:00.316Z,2724.00
2019-05-15T12:18:00.347Z,4124.00
2019-05-15T12:19:08.893Z,3744.00
2019-05-15T12:20:05.596Z,3376.00
2019-05-15T12:21:00.392Z,3380.00
2019-05-15T12:22:00.399Z,4648.00
2019-05-15T12:23:00.422Z,5808.00
2019-05-15T12:24:00.428Z,5856.00
2019-05-15T12:25:01.379Z,5724.00
2019-05-15T12:26:00.465Z,5436.00
2019-05-15T12:27:13.731Z,5296.00
2019-05-15T12:28:00.510Z,5336.00
2019-05-15T12:29:00.511Z,5408.00
2019-05-15T12:30:00.518Z,5464.00
2019-05-15T12:31:00.535Z,5496.00
2019-05-15T12:32:11.706Z,5544.00
2019-05-15T12:33:00.698Z,5696.00
2019-05-15T12:34:00.605Z,5728.00
2019-05-15T12:35:00.608Z,5944.00
2019-05-15T12:36:00.623Z,6172.00
2019-05-15T12:37:00.622Z,6408.00
2019-05-15T12:38:00.663Z,6168.00
2019-05-15T12:39:09.022Z,5956.00
2019-05-15T13:00:01.006Z,16320.00
2019-05-15T13:01:12.818Z,15968.00
2019-05-15T13:02:01.040Z,16992.00
2019-05-15T13:03:01.099Z,18048.00
2019-05-15T13:04:01.096Z,17216.00
2019-05-15T13:05:01.115Z,17184.00
2019-05-15T13:06:01.126Z,17632.00
2019-05-15T13:07:12.881Z,17728.00
2019-05-15T13:08:01.175Z,17984.00
2019-05-15T13:09:01.188Z,18752.00
2019-05-15T13:10:01.212Z,19104.00
2019-05-15T13:11:01.231Z,20384.00
2019-05-15T13:12:01.287Z,20224.00
2019-05-15T13:13:05.194Z,19872.00
2019-05-15T13:14:01.302Z,20032.00
2019-05-15T13:15:01.329Z,20544.00
2019-05-15T13:16:01.352Z,20832.00
2019-05-15T13:17:01.362Z,21216.00